Flight Track Log - Related Links

Times and Time Zones

All times are in EST time to prevent confusion due to time zone crossing. See the SWA1900 flight status page for this flight to view local times or setup timezone preferences in your user account.

Time Position Orientation Groundspeed Altitude Reporting Facility
EST Latitude Longitude Course Direction KTS MPH feet Rate Location/Type
Sat 11:14:19 AM 42.2328 -83.3483 354° North 172 198 1,500  Level Cleveland Center
Sat 11:15:32 AM 42.3011 -83.3581 354° North 224 258 4,200 2,105 Climbing Cleveland Center
Sat 11:16:13 AM 42.3358 -83.3664 350° North 222 255 5,500 2,509 Climbing Cleveland Center
Sat 11:16:27 AM 42.3531 -83.3908 314° West 239 275 6,500 2,710 Climbing Cleveland Center
Sat 11:17:15 AM 42.3844 -83.4300 317° Northwest 234 269 8,300 2,600 Climbing Cleveland Center
Sat 11:17:27 AM 42.4025 -83.4542 315° West 252 290 9,100 2,361 Climbing Cleveland Center
Sat 11:18:16 AM 42.4317 -83.5053 308° West 265 305 10,700 1,909 Climbing Cleveland Center
Sat 11:19:17 AM 42.3978 -83.6342 250° West 319 367 12,600 2,146 Climbing Cleveland Center
Sat 11:20:19 AM 42.3703 -83.7517 252° West 331 381 15,100 2,146 Climbing Cleveland Center
Sat 11:21:20 AM 42.3361 -83.8700 249° West 341 392 17,000 1,869 Climbing Cleveland Center
Sat 11:22:21 AM 42.2831 -83.9864 238° Southwest 362 417 18,900 2,049 Climbing Cleveland Center
Sat 11:23:23 AM 42.2300 -84.1006 238° Southwest 362 417 21,200 1,463 Climbing Cleveland Center
Sat 11:24:24 AM 42.1767 -84.2150 238° Southwest 362 417 21,900 344 Climbing Cleveland Center
Sat 11:25:25 AM 42.1256 -84.3256 238° Southwest 357 411 21,900  Level Cleveland Center
Sat 11:26:26 AM 42.0642 -84.4578 238° Southwest 354 407 21,900  Level Cleveland Center
Sat 11:27:28 AM 42.0125 -84.5686 238° Southwest 352 405 21,900  Level Cleveland Center
Sat 11:28:29 AM 41.9611 -84.6786 238° Southwest 351 404 21,900  Level Cleveland Center
Sat 11:29:30 AM 41.9092 -84.7900 238° Southwest 351 404 21,900  Level Cleveland Center
Sat 11:30:31 AM 41.8567 -84.9022 238° Southwest 354 407 21,900  Level Cleveland Center
Sat 11:31:32 AM 41.8022 -85.0144 237° Southwest 355 409 21,900  Level Cleveland Center
Sat 11:32:34 AM 41.7492 -85.1272 238° Southwest 356 410 21,900  Level Cleveland Center
Sat 11:33:52 AM 41.6742 -85.2850 238° Southwest 361 415 21,900  Level Chicago Center
Sat 11:34:53 AM 41.6317 -85.4106 246° West 357 411 21,900  Level Chicago Center
Sat 11:35:55 AM 41.6203 -85.5242 262° West 358 412 21,900  Level Chicago Center
Sat 11:36:57 AM 41.6058 -85.6569 262° West 360 414 21,900 -537 Level Chicago Center
Sat 11:37:58 AM 41.5883 -85.8100 261° West 347 399 20,800 -1,317 Descending Chicago Center
Sat 11:39:00 AM 41.5764 -85.9242 262° West 313 360 19,200 -1,659 Descending Chicago Center
Sat 11:40:01 AM 41.5633 -86.0353 261° West 304 350 17,400 -1,902 Descending Chicago Center
Sat 11:41:03 AM 41.5511 -86.1453 262° West 301 346 15,300 -1,984 Descending Chicago Center
Sat 11:42:05 AM 41.5389 -86.2586 262° West 307 353 13,300 -1,902 Descending Chicago Center
Sat 11:43:06 AM 41.5264 -86.3656 261° West 293 337 11,400 -1,561 Descending Chicago Center
Sat 11:44:08 AM 41.5214 -86.4764 267° West 298 343 10,100 -726 Descending Chicago Center
Sat 11:45:10 AM 41.5206 -86.6189 270° West 320 368 9,900 -98 Descending Chicago Center
Sat 11:46:11 AM 41.5208 -86.7389 270° West 315 362 9,900 -439 Level Chicago Center
Sat 11:47:13 AM 41.5206 -86.8464 270° West 288 331 9,000 -1,073 Descending Chicago Center
Sat 11:48:14 AM 41.5192 -86.9525 269° West 265 305 7,700 -1,463 Descending Chicago Center
Sat 11:49:16 AM 41.5183 -87.0469 269° West 258 297 6,000 -871 Descending Chicago Center
Sat 11:50:18 AM 41.5175 -87.1386 269° West 250 288 5,900 -48 Descending Chicago Center
Sat 11:51:20 AM 41.5283 -87.2350 279° West 245 282 5,900  Level Chicago Center
Sat 11:52:21 AM 41.5389 -87.3242 279° West 244 281 5,900  Level Chicago Center
Sat 11:53:23 AM 41.5489 -87.4142 278° West 246 283 5,900  Level Chicago Center
Sat 11:54:25 AM 41.5600 -87.5106 279° West 244 281 5,900  Level Chicago Center
Sat 11:55:26 AM 41.5700 -87.6003 279° West 244 281 5,900  Level Chicago Center
Sat 11:56:28 AM 41.5797 -87.6897 278° West 242 278 5,900 -780 Level Chicago Center
Sat 11:57:29 AM 41.5906 -87.7778 279° West 238 274 4,300 -1,659 Descending Chicago Center
Sat 11:58:31 AM 41.6044 -87.8761 281° West 249 287 2,500 -878 Descending Chicago Center
Sat 11:59:32 AM 41.6497 -87.9064 333° Northwest 202 232 2,500  Level Chicago Center
Sat 12:00:34 PM 41.6939 -87.8664 34° Northeast 189 217 2,500 -145 Level Chicago Center
Sat 12:01:36 PM 41.7264 -87.8250 44° Northeast 153 176 2,200 -537 Descending Chicago Center
Sat 12:02:37 PM 41.7539 -87.7903 43° Northeast 126 145 1,400 -732 Descending Chicago Center
Sat 12:03:39 PM 41.7758 -87.7619 44° Northeast 121 139 700 -677 Descending Chicago Center

Login

Don't have an account? Register now (free) for customized features, flight alerts, and more!